sensor_id;sensor_type;location;lat;lon;timestamp;pressure;altitude;pressure_sealevel;temperature;humidity
3096;BME280;1558;42.700;23.360;2023-03-15T00:00:53;94359.19;;;6.26;53.54
3096;BME280;1558;42.700;23.360;2023-03-15T00:03:22;94299.00;;;5.90;53.67
3096;BME280;1558;42.700;23.360;2023-03-15T00:05:55;94314.81;;;6.04;53.51
3096;BME280;1558;42.700;23.360;2023-03-15T00:08:25;94347.06;;;6.28;52.40
3096;BME280;1558;42.700;23.360;2023-03-15T00:10:55;94339.03;;;6.28;52.90
3096;BME280;1558;42.700;23.360;2023-03-15T00:13:46;94340.91;;;6.28;52.84
3096;BME280;1558;42.700;23.360;2023-03-15T00:16:33;94336.03;;;6.30;52.38
3096;BME280;1558;42.700;23.360;2023-03-15T00:19:10;94340.91;;;6.28;52.73
3096;BME280;1558;42.700;23.360;2023-03-15T00:21:57;94343.28;;;6.29;52.60
3096;BME280;1558;42.700;23.360;2023-03-15T00:24:43;94309.59;;;6.07;52.61
3096;BME280;1558;42.700;23.360;2023-03-15T00:27:27;94332.44;;;6.26;52.74
3096;BME280;1558;42.700;23.360;2023-03-15T00:30:15;94292.63;;;6.03;53.55
3096;BME280;1558;42.700;23.360;2023-03-15T00:33:01;94344.44;;;6.40;52.82
3096;BME280;1558;42.700;23.360;2023-03-15T00:35:49;94333.81;;;6.32;52.94
3096;BME280;1558;42.700;23.360;2023-03-15T00:38:19;94160.75;;;5.20;53.21
3096;BME280;1558;42.700;23.360;2023-03-15T00:40:50;94325.72;;;6.20;53.94
3096;BME280;1558;42.700;23.360;2023-03-15T00:43:33;94317.63;;;6.07;54.30
3096;BME280;1558;42.700;23.360;2023-03-15T00:46:05;94316.38;;;6.05;55.40
3096;BME280;1558;42.700;23.360;2023-03-15T00:48:47;94290.56;;;5.80;56.16
3096;BME280;1558;42.700;23.360;2023-03-15T00:51:22;94258.19;;;5.52;56.76
3096;BME280;1558;42.700;23.360;2023-03-15T00:53:52;94270.34;;;5.70;56.93
3096;BME280;1558;42.700;23.360;2023-03-15T00:56:21;94334.47;;;6.08;56.79
3096;BME280;1558;42.700;23.360;2023-03-15T00:58:50;94258.53;;;5.71;55.68
3096;BME280;1558;42.700;23.360;2023-03-15T01:01:22;94242.75;;;5.58;55.56
3096;BME280;1558;42.700;23.360;2023-03-15T01:03:53;94217.91;;;5.28;55.96
3096;BME280;1558;42.700;23.360;2023-03-15T01:06:23;94300.88;;;5.69;56.07
3096;BME280;1558;42.700;23.360;2023-03-15T01:08:51;94300.41;;;5.67;56.08
3096;BME280;1558;42.700;23.360;2023-03-15T01:11:23;94232.06;;;5.28;56.28
3096;BME280;1558;42.700;23.360;2023-03-15T01:13:52;94297.41;;;5.69;56.53
3096;BME280;1558;42.700;23.360;2023-03-15T01:16:26;94292.75;;;5.57;56.66
3096;BME280;1558;42.700;23.360;2023-03-15T01:18:56;94296.56;;;5.56;56.79
3096;BME280;1558;42.700;23.360;2023-03-15T01:21:29;94285.06;;;5.56;56.77
3096;BME280;1558;42.700;23.360;2023-03-15T01:24:11;94287.06;;;5.59;56.76
3096;BME280;1558;42.700;23.360;2023-03-15T01:26:44;94282.25;;;5.52;57.00
3096;BME280;1558;42.700;23.360;2023-03-15T01:29:22;94257.72;;;5.29;57.46
3096;BME280;1558;42.700;23.360;2023-03-15T01:32:15;94278.22;;;5.46;57.36
3096;BME280;1558;42.700;23.360;2023-03-15T01:34:51;94275.84;;;5.44;57.31
3096;BME280;1558;42.700;23.360;2023-03-15T01:37:34;94271.56;;;5.52;57.53
3096;BME280;1558;42.700;23.360;2023-03-15T01:40:17;94282.41;;;5.56;57.25
3096;BME280;1558;42.700;23.360;2023-03-15T01:43:18;94266.66;;;5.54;56.68
3096;BME280;1558;42.700;23.360;2023-03-15T01:46:05;94262.81;;;5.64;56.90
3096;BME280;1558;42.700;23.360;2023-03-15T01:48:38;94223.88;;;5.33;56.89
3096;BME280;1558;42.700;23.360;2023-03-15T01:51:14;94258.63;;;5.54;57.05
3096;BME280;1558;42.700;23.360;2023-03-15T01:53:46;94232.94;;;5.41;56.95
3096;BME280;1558;42.700;23.360;2023-03-15T01:56:15;94238.75;;;5.43;57.26
3096;BME280;1558;42.700;23.360;2023-03-15T01:58:47;94252.66;;;5.57;56.98
3096;BME280;1558;42.700;23.360;2023-03-15T02:01:37;94247.56;;;5.64;57.45
3096;BME280;1558;42.700;23.360;2023-03-15T02:04:26;94248.72;;;5.55;57.29
3096;BME280;1558;42.700;23.360;2023-03-15T02:07:10;94220.41;;;5.33;57.03
3096;BME280;1558;42.700;23.360;2023-03-15T02:09:56;94236.34;;;5.50;57.32
3096;BME280;1558;42.700;23.360;2023-03-15T02:12:58;94233.31;;;5.31;57.35
3096;BME280;1558;42.700;23.360;2023-03-15T02:15:33;94220.13;;;5.26;57.69
3096;BME280;1558;42.700;23.360;2023-03-15T02:18:06;94200.81;;;5.00;57.34
3096;BME280;1558;42.700;23.360;2023-03-15T02:20:43;94223.22;;;5.16;57.30
3096;BME280;1558;42.700;23.360;2023-03-15T02:23:17;94217.56;;;5.09;57.16
3096;BME280;1558;42.700;23.360;2023-03-15T02:25:52;94211.41;;;5.17;57.17
3096;BME280;1558;42.700;23.360;2023-03-15T02:28:23;94209.19;;;5.19;57.24
3096;BME280;1558;42.700;23.360;2023-03-15T02:31:10;94209.19;;;5.19;57.15
3096;BME280;1558;42.700;23.360;2023-03-15T02:33:52;94212.31;;;5.21;57.61
3096;BME280;1558;42.700;23.360;2023-03-15T02:36:24;94196.84;;;5.06;57.20
3096;BME280;1558;42.700;23.360;2023-03-15T02:38:53;94210.84;;;5.03;57.10
3096;BME280;1558;42.700;23.360;2023-03-15T02:41:25;94182.25;;;4.74;57.11
3096;BME280;1558;42.700;23.360;2023-03-15T02:44:07;94220.91;;;5.06;57.65
3096;BME280;1558;42.700;23.360;2023-03-15T02:46:47;94216.91;;;5.12;57.60
3096;BME280;1558;42.700;23.360;2023-03-15T02:49:24;94025.53;;;3.87;57.28
3096;BME280;1558;42.700;23.360;2023-03-15T02:51:55;94216.47;;;5.10;57.19
3096;BME280;1558;42.700;23.360;2023-03-15T02:54:23;94162.66;;;4.91;57.59
3096;BME280;1558;42.700;23.360;2023-03-15T02:56:51;94188.84;;;5.06;57.47
3096;BME280;1558;42.700;23.360;2023-03-15T02:59:20;94175.38;;;4.94;57.48
3096;BME280;1558;42.700;23.360;2023-03-15T03:01:48;94198.31;;;4.95;57.33
3096;BME280;1558;42.700;23.360;2023-03-15T03:04:18;94184.84;;;4.82;57.98
3096;BME280;1558;42.700;23.360;2023-03-15T03:06:46;94196.03;;;4.85;57.83
3096;BME280;1558;42.700;23.360;2023-03-15T03:09:15;94171.44;;;4.70;57.99
3096;BME280;1558;42.700;23.360;2023-03-15T03:11:43;94180.25;;;4.62;57.83
3096;BME280;1558;42.700;23.360;2023-03-15T03:14:11;94194.34;;;4.71;58.28
3096;BME280;1558;42.700;23.360;2023-03-15T03:16:41;94175.19;;;4.69;58.14
3096;BME280;1558;42.700;23.360;2023-03-15T03:19:09;94163.31;;;4.58;58.30
3096;BME280;1558;42.700;23.360;2023-03-15T03:21:38;94179.44;;;4.70;58.71
3096;BME280;1558;42.700;23.360;2023-03-15T03:24:09;94163.97;;;4.55;59.06
3096;BME280;1558;42.700;23.360;2023-03-15T03:26:37;94169.91;;;4.61;58.79
3096;BME280;1558;42.700;23.360;2023-03-15T03:29:05;94175.72;;;4.63;58.58
3096;BME280;1558;42.700;23.360;2023-03-15T03:31:33;94176.91;;;4.74;58.71
3096;BME280;1558;42.700;23.360;2023-03-15T03:34:02;94169.22;;;4.72;58.83
3096;BME280;1558;42.700;23.360;2023-03-15T03:36:30;94154.28;;;4.71;58.36
3096;BME280;1558;42.700;23.360;2023-03-15T03:38:59;94161.50;;;4.79;58.38
3096;BME280;1558;42.700;23.360;2023-03-15T03:41:30;94152.81;;;4.82;58.89
3096;BME280;1558;42.700;23.360;2023-03-15T03:44:00;94140.47;;;4.69;58.87
3096;BME280;1558;42.700;23.360;2023-03-15T03:46:41;94151.72;;;4.84;59.00
3096;BME280;1558;42.700;23.360;2023-03-15T03:49:22;94022.69;;;3.92;58.62
3096;BME280;1558;42.700;23.360;2023-03-15T03:52:10;94110.94;;;4.45;58.80
3096;BME280;1558;42.700;23.360;2023-03-15T03:54:41;94150.47;;;4.81;58.48
3096;BME280;1558;42.700;23.360;2023-03-15T03:57:11;94145.47;;;4.79;58.46
3096;BME280;1558;42.700;23.360;2023-03-15T03:59:40;94097.94;;;4.35;58.88
3096;BME280;1558;42.700;23.360;2023-03-15T04:02:26;94148.50;;;4.69;59.21
3096;BME280;1558;42.700;23.360;2023-03-15T04:05:07;94144.31;;;4.60;59.68
3096;BME280;1558;42.700;23.360;2023-03-15T04:07:38;94147.59;;;4.65;59.46
3096;BME280;1558;42.700;23.360;2023-03-15T04:10:09;94140.53;;;4.61;59.86
3096;BME280;1558;42.700;23.360;2023-03-15T04:12:41;93974.09;;;3.40;60.21
3096;BME280;1558;42.700;23.360;2023-03-15T04:15:21;94132.56;;;4.52;60.10
3096;BME280;1558;42.700;23.360;2023-03-15T04:17:55;94131.13;;;4.55;60.75
3096;BME280;1558;42.700;23.360;2023-03-15T04:20:35;94130.06;;;4.47;60.90
3096;BME280;1558;42.700;23.360;2023-03-15T04:23:18;94129.16;;;4.43;61.26
3096;BME280;1558;42.700;23.360;2023-03-15T04:25:56;94128.97;;;4.48;61.61
3096;BME280;1558;42.700;23.360;2023-03-15T04:28:29;94125.78;;;4.55;61.42
3096;BME280;1558;42.700;23.360;2023-03-15T04:30:57;94133.84;;;4.46;61.52
3096;BME280;1558;42.700;23.360;2023-03-15T04:33:25;94136.44;;;4.34;62.33
3096;BME280;1558;42.700;23.360;2023-03-15T04:35:54;94126.53;;;4.35;62.47
3096;BME280;1558;42.700;23.360;2023-03-15T04:38:23;94121.59;;;4.45;62.56
3096;BME280;1558;42.700;23.360;2023-03-15T04:40:52;94125.97;;;4.50;62.42
3096;BME280;1558;42.700;23.360;2023-03-15T04:43:22;94123.91;;;4.55;62.36
3096;BME280;1558;42.700;23.360;2023-03-15T04:45:50;94131.94;;;4.55;61.88
3096;BME280;1558;42.700;23.360;2023-03-15T04:48:31;94121.09;;;4.52;61.69
3096;BME280;1558;42.700;23.360;2023-03-15T04:51:10;94133.09;;;4.66;61.71
3096;BME280;1558;42.700;23.360;2023-03-15T04:53:41;94108.41;;;4.49;62.24
3096;BME280;1558;42.700;23.360;2023-03-15T04:56:11;94133.44;;;4.65;61.58
3096;BME280;1558;42.700;23.360;2023-03-15T04:58:42;94125.78;;;4.63;61.95
3096;BME280;1558;42.700;23.360;2023-03-15T05:01:14;94095.00;;;4.57;61.75
3096;BME280;1558;42.700;23.360;2023-03-15T05:03:44;94087.59;;;4.63;61.34
3096;BME280;1558;42.700;23.360;2023-03-15T05:06:24;94121.94;;;4.73;61.63
3096;BME280;1558;42.700;23.360;2023-03-15T05:08:55;94126.50;;;4.72;61.96
3096;BME280;1558;42.700;23.360;2023-03-15T05:11:24;94085.75;;;4.55;62.37
3096;BME280;1558;42.700;23.360;2023-03-15T05:13:53;94136.03;;;5.23;61.89
3096;BME280;1558;42.700;23.360;2023-03-15T05:16:42;94126.13;;;5.44;61.25
3096;BME280;1558;42.700;23.360;2023-03-15T05:19:16;94093.56;;;5.75;61.22
3096;BME280;1558;42.700;23.360;2023-03-15T05:21:50;94053.97;;;5.89;59.63
3096;BME280;1558;42.700;23.360;2023-03-15T05:24:21;94124.72;;;6.12;58.28
3096;BME280;1558;42.700;23.360;2023-03-15T05:26:59;94078.97;;;5.61;58.44
3096;BME280;1558;42.700;23.360;2023-03-15T05:29:29;94113.66;;;5.81;58.36
3096;BME280;1558;42.700;23.360;2023-03-15T05:31:58;94129.53;;;5.86;58.56
3096;BME280;1558;42.700;23.360;2023-03-15T05:34:36;94132.50;;;5.73;58.57
3096;BME280;1558;42.700;23.360;2023-03-15T05:37:08;94100.50;;;5.43;58.46
3096;BME280;1558;42.700;23.360;2023-03-15T05:39:43;94120.50;;;5.58;58.80
3096;BME280;1558;42.700;23.360;2023-03-15T05:42:26;94121.41;;;5.62;56.79
3096;BME280;1558;42.700;23.360;2023-03-15T05:45:27;94076.50;;;5.35;56.81
3096;BME280;1558;42.700;23.360;2023-03-15T05:48:01;94129.38;;;5.50;57.49
3096;BME280;1558;42.700;23.360;2023-03-15T05:50:31;94123.25;;;5.49;57.81
3096;BME280;1558;42.700;23.360;2023-03-15T05:53:26;94084.34;;;5.19;57.54
3096;BME280;1558;42.700;23.360;2023-03-15T05:55:59;94116.66;;;5.47;58.04
3096;BME280;1558;42.700;23.360;2023-03-15T05:58:27;94113.94;;;5.35;57.94
3096;BME280;1558;42.700;23.360;2023-03-15T06:00:55;94115.44;;;5.24;58.56
3096;BME280;1558;42.700;23.360;2023-03-15T06:03:24;94132.59;;;5.23;58.98
3096;BME280;1558;42.700;23.360;2023-03-15T06:05:53;94129.66;;;5.16;59.58
3096;BME280;1558;42.700;23.360;2023-03-15T06:08:32;94121.53;;;5.86;59.81
3096;BME280;1558;42.700;23.360;2023-03-15T06:11:06;93938.22;;;5.11;57.99
3096;BME280;1558;42.700;23.360;2023-03-15T06:13:40;94126.00;;;6.06;57.84
3096;BME280;1558;42.700;23.360;2023-03-15T06:16:11;94122.63;;;5.85;58.12
3096;BME280;1558;42.700;23.360;2023-03-15T06:18:57;94111.34;;;6.73;58.46
3096;BME280;1558;42.700;23.360;2023-03-15T06:21:28;94106.16;;;7.04;56.44
3096;BME280;1558;42.700;23.360;2023-03-15T06:23:58;94112.66;;;7.71;55.82
3096;BME280;1558;42.700;23.360;2023-03-15T06:26:28;94125.88;;;8.35;54.97
3096;BME280;1558;42.700;23.360;2023-03-15T06:28:57;94124.94;;;8.58;52.93
3096;BME280;1558;42.700;23.360;2023-03-15T06:31:24;94064.28;;;8.26;52.19
3096;BME280;1558;42.700;23.360;2023-03-15T06:33:52;94099.38;;;7.90;53.87
3096;BME280;1558;42.700;23.360;2023-03-15T06:36:20;94086.72;;;7.47;54.35
3096;BME280;1558;42.700;23.360;2023-03-15T06:38:50;94091.13;;;7.67;55.74
3096;BME280;1558;42.700;23.360;2023-03-15T06:41:21;94093.75;;;8.69;55.16
3096;BME280;1558;42.700;23.360;2023-03-15T06:43:49;94099.75;;;8.98;52.85
3096;BME280;1558;42.700;23.360;2023-03-15T06:46:17;94112.81;;;8.33;53.20
3096;BME280;1558;42.700;23.360;2023-03-15T06:48:45;94103.34;;;8.24;54.96
3096;BME280;1558;42.700;23.360;2023-03-15T06:51:13;94089.03;;;8.82;54.05
3096;BME280;1558;42.700;23.360;2023-03-15T06:53:41;94097.50;;;9.73;52.56
3096;BME280;1558;42.700;23.360;2023-03-15T06:56:09;94102.66;;;10.19;51.61
3096;BME280;1558;42.700;23.360;2023-03-15T06:58:39;94109.72;;;10.08;49.61
3096;BME280;1558;42.700;23.360;2023-03-15T07:01:07;94108.13;;;9.85;51.24
3096;BME280;1558;42.700;23.360;2023-03-15T07:03:38;94096.91;;;10.21;50.87
3096;BME280;1558;42.700;23.360;2023-03-15T07:06:06;94073.47;;;9.26;50.96
3096;BME280;1558;42.700;23.360;2023-03-15T07:08:34;94055.34;;;8.38;51.86
3096;BME280;1558;42.700;23.360;2023-03-15T07:11:02;94102.66;;;8.42;52.18
3096;BME280;1558;42.700;23.360;2023-03-15T07:13:31;94094.97;;;9.07;52.39
3096;BME280;1558;42.700;23.360;2023-03-15T07:16:01;94098.81;;;10.01;51.49
3096;BME280;1558;42.700;23.360;2023-03-15T07:18:31;94103.72;;;9.96;49.99
3096;BME280;1558;42.700;23.360;2023-03-15T07:21:00;94084.25;;;9.83;51.02
3096;BME280;1558;42.700;23.360;2023-03-15T07:23:29;94066.25;;;10.29;50.28
3096;BME280;1558;42.700;23.360;2023-03-15T07:25:57;94095.19;;;10.55;49.59
3096;BME280;1558;42.700;23.360;2023-03-15T07:28:25;94099.34;;;10.30;49.32
3096;BME280;1558;42.700;23.360;2023-03-15T07:30:55;94051.38;;;10.16;49.87
3096;BME280;1558;42.700;23.360;2023-03-15T07:33:25;94089.72;;;10.51;49.21
3096;BME280;1558;42.700;23.360;2023-03-15T07:35:55;94055.47;;;10.78;48.74
3096;BME280;1558;42.700;23.360;2023-03-15T07:38:24;94082.34;;;10.71;49.69
3096;BME280;1558;42.700;23.360;2023-03-15T07:40:52;94075.56;;;11.36;48.42
3096;BME280;1558;42.700;23.360;2023-03-15T07:43:20;94080.84;;;11.85;48.53
3096;BME280;1558;42.700;23.360;2023-03-15T07:45:49;94065.56;;;12.00;47.16
3096;BME280;1558;42.700;23.360;2023-03-15T07:48:17;94085.53;;;12.72;45.25
3096;BME280;1558;42.700;23.360;2023-03-15T07:50:46;94079.31;;;13.19;46.59
3096;BME280;1558;42.700;23.360;2023-03-15T07:53:15;94086.75;;;14.12;44.59
3096;BME280;1558;42.700;23.360;2023-03-15T07:55:43;94081.44;;;14.72;42.85
3096;BME280;1558;42.700;23.360;2023-03-15T07:58:13;94037.47;;;13.78;42.94
3096;BME280;1558;42.700;23.360;2023-03-15T08:00:45;94072.94;;;13.45;43.22
3096;BME280;1558;42.700;23.360;2023-03-15T08:03:13;94068.81;;;13.79;43.60
3096;BME280;1558;42.700;23.360;2023-03-15T08:05:41;94040.44;;;13.52;43.34
3096;BME280;1558;42.700;23.360;2023-03-15T08:08:10;94061.28;;;13.41;42.84
3096;BME280;1558;42.700;23.360;2023-03-15T08:10:38;94055.78;;;12.72;43.77
3096;BME280;1558;42.700;23.360;2023-03-15T08:13:07;94060.44;;;12.28;44.52
3096;BME280;1558;42.700;23.360;2023-03-15T08:15:35;94053.66;;;12.48;44.27
3096;BME280;1558;42.700;23.360;2023-03-15T08:18:03;94052.34;;;12.75;44.74
3096;BME280;1558;42.700;23.360;2023-03-15T08:20:32;94042.47;;;12.53;44.29
3096;BME280;1558;42.700;23.360;2023-03-15T08:23:00;94033.19;;;13.02;44.79
3096;BME280;1558;42.700;23.360;2023-03-15T08:25:30;94031.28;;;13.85;43.69
3096;BME280;1558;42.700;23.360;2023-03-15T08:27:59;94032.97;;;14.35;42.25
3096;BME280;1558;42.700;23.360;2023-03-15T08:30:27;94039.94;;;14.50;41.26
3096;BME280;1558;42.700;23.360;2023-03-15T08:32:55;94043.34;;;14.08;40.67
3096;BME280;1558;42.700;23.360;2023-03-15T08:35:23;94039.88;;;14.29;41.79
3096;BME280;1558;42.700;23.360;2023-03-15T08:37:51;93981.38;;;14.21;40.55
3096;BME280;1558;42.700;23.360;2023-03-15T08:40:20;94042.22;;;14.16;40.56
3096;BME280;1558;42.700;23.360;2023-03-15T08:42:52;94048.72;;;13.91;41.51
3096;BME280;1558;42.700;23.360;2023-03-15T08:45:21;94044.38;;;13.72;42.32
3096;BME280;1558;42.700;23.360;2023-03-15T08:47:53;94038.41;;;14.35;41.62
3096;BME280;1558;42.700;23.360;2023-03-15T08:50:21;94036.09;;;14.65;39.79
3096;BME280;1558;42.700;23.360;2023-03-15T08:52:49;94021.31;;;14.27;41.08
3096;BME280;1558;42.700;23.360;2023-03-15T08:55:18;94034.69;;;13.68;41.46
3096;BME280;1558;42.700;23.360;2023-03-15T08:57:46;94034.97;;;13.38;41.67
3096;BME280;1558;42.700;23.360;2023-03-15T09:00:16;94041.84;;;12.67;42.78
3096;BME280;1558;42.700;23.360;2023-03-15T09:02:47;94032.94;;;12.19;44.07
3096;BME280;1558;42.700;23.360;2023-03-15T09:05:16;94044.88;;;12.18;44.36
3096;BME280;1558;42.700;23.360;2023-03-15T09:07:44;94039.00;;;12.53;44.19
3096;BME280;1558;42.700;23.360;2023-03-15T09:10:15;94041.25;;;12.98;43.46
3096;BME280;1558;42.700;23.360;2023-03-15T09:12:44;94039.34;;;12.99;43.26
3096;BME280;1558;42.700;23.360;2023-03-15T09:15:17;94047.59;;;12.65;43.66
3096;BME280;1558;42.700;23.360;2023-03-15T09:17:47;94022.81;;;12.56;43.98
3096;BME280;1558;42.700;23.360;2023-03-15T09:20:15;94038.94;;;12.42;44.08
3096;BME280;1558;42.700;23.360;2023-03-15T09:22:49;94028.38;;;12.30;44.43
3096;BME280;1558;42.700;23.360;2023-03-15T09:25:17;94038.66;;;12.14;44.61
3096;BME280;1558;42.700;23.360;2023-03-15T09:27:45;94047.28;;;11.56;45.08
3096;BME280;1558;42.700;23.360;2023-03-15T09:30:14;94044.47;;;11.16;46.23
3096;BME280;1558;42.700;23.360;2023-03-15T09:32:43;94032.72;;;11.31;46.73
3096;BME280;1558;42.700;23.360;2023-03-15T09:35:13;94036.31;;;11.42;46.42
3096;BME280;1558;42.700;23.360;2023-03-15T09:37:41;94024.88;;;11.52;46.56
3096;BME280;1558;42.700;23.360;2023-03-15T09:40:15;94030.53;;;11.74;46.32
3096;BME280;1558;42.700;23.360;2023-03-15T09:42:55;94012.47;;;11.81;45.98
3096;BME280;1558;42.700;23.360;2023-03-15T09:45:29;94016.66;;;12.59;44.91
3096;BME280;1558;42.700;23.360;2023-03-15T09:48:04;94011.03;;;12.85;44.15
3096;BME280;1558;42.700;23.360;2023-03-15T09:50:36;94014.75;;;12.63;44.54
3096;BME280;1558;42.700;23.360;2023-03-15T09:53:12;94019.84;;;12.24;44.64
3096;BME280;1558;42.700;23.360;2023-03-15T09:55:42;94014.75;;;12.16;45.54
3096;BME280;1558;42.700;23.360;2023-03-15T09:58:15;94007.41;;;12.16;45.66
3096;BME280;1558;42.700;23.360;2023-03-15T10:00:47;93951.09;;;11.78;45.10
3096;BME280;1558;42.700;23.360;2023-03-15T10:03:21;93976.03;;;12.05;45.49
3096;BME280;1558;42.700;23.360;2023-03-15T10:05:56;93997.88;;;12.30;45.41
3096;BME280;1558;42.700;23.360;2023-03-15T10:08:26;93961.91;;;11.82;45.34
3096;BME280;1558;42.700;23.360;2023-03-15T10:11:01;94005.06;;;12.15;45.18
3096;BME280;1558;42.700;23.360;2023-03-15T10:13:42;94008.03;;;12.03;45.87
3096;BME280;1558;42.700;23.360;2023-03-15T10:16:25;93955.31;;;11.42;45.56
3096;BME280;1558;42.700;23.360;2023-03-15T10:19:05;93847.88;;;10.85;45.77
3096;BME280;1558;42.700;23.360;2023-03-15T10:21:48;94009.22;;;12.02;45.64
3096;BME280;1558;42.700;23.360;2023-03-15T10:24:21;94006.34;;;12.28;45.42
3096;BME280;1558;42.700;23.360;2023-03-15T10:26:52;93893.81;;;11.66;45.38
3096;BME280;1558;42.700;23.360;2023-03-15T10:29:23;94007.25;;;12.43;45.11
3096;BME280;1558;42.700;23.360;2023-03-15T10:31:53;93986.81;;;12.01;44.66
3096;BME280;1558;42.700;23.360;2023-03-15T10:34:23;93993.84;;;12.13;45.75
3096;BME280;1558;42.700;23.360;2023-03-15T10:36:52;93989.78;;;11.89;45.36
3096;BME280;1558;42.700;23.360;2023-03-15T10:39:23;93973.97;;;11.58;45.87
3096;BME280;1558;42.700;23.360;2023-03-15T10:41:51;93999.19;;;12.02;45.99
3096;BME280;1558;42.700;23.360;2023-03-15T10:44:22;94002.50;;;11.89;45.26
3096;BME280;1558;42.700;23.360;2023-03-15T10:47:02;94002.63;;;12.03;45.73
3096;BME280;1558;42.700;23.360;2023-03-15T10:49:54;93980.63;;;12.01;45.62
3096;BME280;1558;42.700;23.360;2023-03-15T10:52:28;93996.97;;;12.15;45.60
3096;BME280;1558;42.700;23.360;2023-03-15T10:55:04;93992.25;;;12.05;45.28
3096;BME280;1558;42.700;23.360;2023-03-15T10:57:36;93996.47;;;12.02;46.10
3096;BME280;1558;42.700;23.360;2023-03-15T11:00:20;93985.34;;;12.11;45.83
3096;BME280;1558;42.700;23.360;2023-03-15T11:02:50;93999.91;;;12.43;45.73
3096;BME280;1558;42.700;23.360;2023-03-15T11:05:20;93996.63;;;12.20;45.01
3096;BME280;1558;42.700;23.360;2023-03-15T11:07:56;93998.28;;;11.91;45.75
3096;BME280;1558;42.700;23.360;2023-03-15T11:10:26;93991.28;;;11.87;45.68
3096;BME280;1558;42.700;23.360;2023-03-15T11:13:11;93980.41;;;11.80;46.17
3096;BME280;1558;42.700;23.360;2023-03-15T11:15:47;93987.13;;;11.60;46.35
3096;BME280;1558;42.700;23.360;2023-03-15T11:18:17;93977.16;;;11.64;46.48
3096;BME280;1558;42.700;23.360;2023-03-15T11:20:47;93964.53;;;11.75;46.70
3096;BME280;1558;42.700;23.360;2023-03-15T11:23:19;93975.97;;;11.98;46.06
3096;BME280;1558;42.700;23.360;2023-03-15T11:25:49;93971.81;;;12.07;45.78
3096;BME280;1558;42.700;23.360;2023-03-15T11:28:19;93987.78;;;12.23;45.40
3096;BME280;1558;42.700;23.360;2023-03-15T11:30:49;93987.78;;;12.27;46.00
3096;BME280;1558;42.700;23.360;2023-03-15T11:33:31;93968.16;;;12.33;45.70
3096;BME280;1558;42.700;23.360;2023-03-15T11:36:10;93983.25;;;12.38;45.45
3096;BME280;1558;42.700;23.360;2023-03-15T11:38:41;93969.25;;;12.21;45.88
3096;BME280;1558;42.700;23.360;2023-03-15T11:41:15;93950.66;;;12.16;45.60
3096;BME280;1558;42.700;23.360;2023-03-15T11:43:54;93959.41;;;12.54;45.42
3096;BME280;1558;42.700;23.360;2023-03-15T11:46:26;93966.41;;;12.58;45.45
3096;BME280;1558;42.700;23.360;2023-03-15T11:49:01;93956.13;;;12.27;45.29
3096;BME280;1558;42.700;23.360;2023-03-15T11:51:34;93951.91;;;12.30;45.20
3096;BME280;1558;42.700;23.360;2023-03-15T11:54:09;93955.09;;;12.46;44.92
3096;BME280;1558;42.700;23.360;2023-03-15T11:56:52;93909.28;;;12.09;45.40
3096;BME280;1558;42.700;23.360;2023-03-15T11:59:24;93908.59;;;12.19;45.76
3096;BME280;1558;42.700;23.360;2023-03-15T12:01:56;93954.19;;;12.78;45.26
3096;BME280;1558;42.700;23.360;2023-03-15T12:07:35;93957.41;;;12.44;45.30
3096;BME280;1558;42.700;23.360;2023-03-15T12:10:31;93906.13;;;12.00;45.37
3096;BME280;1558;42.700;23.360;2023-03-15T12:13:06;93944.34;;;12.53;45.29
3096;BME280;1558;42.700;23.360;2023-03-15T12:15:44;93918.41;;;12.45;45.21
3096;BME280;1558;42.700;23.360;2023-03-15T12:18:21;93940.91;;;12.59;45.38
3096;BME280;1558;42.700;23.360;2023-03-15T12:21:09;93914.16;;;12.44;45.25
3096;BME280;1558;42.700;23.360;2023-03-15T12:23:43;93917.63;;;12.44;45.42
3096;BME280;1558;42.700;23.360;2023-03-15T12:26:22;93909.06;;;12.35;45.57
3096;BME280;1558;42.700;23.360;2023-03-15T12:29:01;93942.06;;;12.58;45.39
3096;BME280;1558;42.700;23.360;2023-03-15T12:31:48;93888.53;;;12.27;45.28
3096;BME280;1558;42.700;23.360;2023-03-15T12:34:24;93920.78;;;12.53;45.60
3096;BME280;1558;42.700;23.360;2023-03-15T12:36:55;93903.06;;;12.63;45.20
3096;BME280;1558;42.700;23.360;2023-03-15T12:39:43;93922.44;;;12.72;46.56
3096;BME280;1558;42.700;23.360;2023-03-15T12:48:29;93915.06;;;12.11;50.26
3096;BME280;1558;42.700;23.360;2023-03-15T12:51:03;93909.22;;;12.02;50.36
3096;BME280;1558;42.700;23.360;2023-03-15T12:53:44;93921.25;;;12.11;50.53
3096;BME280;1558;42.700;23.360;2023-03-15T12:56:42;93914.28;;;12.10;51.20
3096;BME280;1558;42.700;23.360;2023-03-15T12:59:21;93929.00;;;12.13;51.48
3096;BME280;1558;42.700;23.360;2023-03-15T13:01:53;93888.56;;;11.76;52.46
3096;BME280;1558;42.700;23.360;2023-03-15T13:04:21;93920.41;;;12.00;52.07
3096;BME280;1558;42.700;23.360;2023-03-15T13:07:04;93915.63;;;11.83;52.91
3096;BME280;1558;42.700;23.360;2023-03-15T13:09:48;93908.59;;;11.72;53.57
3096;BME280;1558;42.700;23.360;2023-03-15T13:12:24;93921.00;;;11.80;53.67
3096;BME280;1558;42.700;23.360;2023-03-15T13:14:59;93905.94;;;11.79;53.83
3096;BME280;1558;42.700;23.360;2023-03-15T13:17:35;93917.22;;;11.88;53.24
3096;BME280;1558;42.700;23.360;2023-03-15T13:20:26;93870.69;;;11.65;52.95
3096;BME280;1558;42.700;23.360;2023-03-15T13:23:03;93897.19;;;11.92;52.74
3096;BME280;1558;42.700;23.360;2023-03-15T13:25:43;93912.81;;;12.16;52.31
3096;BME280;1558;42.700;23.360;2023-03-15T13:28:20;93919.81;;;12.24;52.36
3096;BME280;1558;42.700;23.360;2023-03-15T13:30:50;93926.22;;;12.06;51.47
3096;BME280;1558;42.700;23.360;2023-03-15T13:33:21;93887.31;;;11.70;51.84
3096;BME280;1558;42.700;23.360;2023-03-15T13:35:55;93925.03;;;12.03;52.06
3096;BME280;1558;42.700;23.360;2023-03-15T13:38:30;93917.03;;;12.14;51.56
3096;BME280;1558;42.700;23.360;2023-03-15T13:40:59;93907.41;;;12.16;51.28
3096;BME280;1558;42.700;23.360;2023-03-15T13:43:32;93936.41;;;12.27;51.81
3096;BME280;1558;42.700;23.360;2023-03-15T13:46:01;93910.91;;;12.17;51.02
3096;BME280;1558;42.700;23.360;2023-03-15T13:48:32;93924.66;;;12.56;51.00
3096;BME280;1558;42.700;23.360;2023-03-15T13:51:03;93932.06;;;12.69;50.69
3096;BME280;1558;42.700;23.360;2023-03-15T13:53:33;93924.03;;;12.76;50.16
3096;BME280;1558;42.700;23.360;2023-03-15T13:56:16;93865.41;;;12.33;49.69
3096;BME280;1558;42.700;23.360;2023-03-15T13:58:47;93928.97;;;12.67;49.87
3096;BME280;1558;42.700;23.360;2023-03-15T14:01:17;93927.09;;;12.75;49.43